Radiosonde details



Informationen :

Serial : X5211264
Type : Vaisala RS41-NG
Date of production : 22.12.2025
Frequency : 404.800MHz
Launchsite : Boise, Boise Air Terminal
Nearest town : Cascade, US (53.8km)

Altitude (Max) : 18519m at 2026-09-04 18:04:36
Speed (Max) : 178km/h at altitude 9781m

Average speed : 101km/h
Average ascent rate : 5m/s
Average descent rate : -12m/s
Ascent rate (Max) : 8.4m/s
Descent rate (Max): -13.6m/s

First frame :
KE7DJD at 2026-09-04 17:04:57 at altitude 1222m (OG: 302m)
Last frame :
KE7DJD at 2026-09-04 19:14:48 at altitude 4439m (OG: 2223m)

Flighttime : 2h9m51s
Ascent time : 59m39s
Descent time : 1h10m12s
Uptime : -
Killtimer : 8h3m

Distance (Straight line distance): 136km

Distance (Route):


Frames : 178


Measurement :

Temperature : -8.0°C
Humidity : 113.3%
Pressure : 0hPa


Vertical profile (SkewT) :


Elevation profile :



Receiving stations :


Receiver Frames First received Last received
KE7DJD 178 2026-09-04 17:04:57 2026-09-04 19:14:48

Share per receiver :



All frames :


Receiver Date Latitude Longitude Direction Speed Altitude Climb Temperature Humidity Pressure Voltage Killtimer Uptime BKT XDATA
KE7DJD2026-09-04 19:14:4844.63739-115.3842621°60km/h4439m-12.6m/s-8.0°C113.3%0hPa0V08:03:0000:00:0000:00:00
KE7DJD2026-09-04 19:14:2844.63424-115.3857321°68km/h4698m-13.6m/s-9.8°C116.1%0hPa0V08:04:0000:00:0000:00:00
KE7DJD2026-09-04 19:14:0844.63098-115.3874622°68km/h4966m-13.6m/s-11.5°C111.9%0hPa0V08:04:0000:00:0000:00:00
KE7DJD2026-09-04 19:13:4744.62730-115.3891219°77km/h5204m-7.8m/s-12.3°C87.4%0hPa0V00:00:0000:00:0000:00:00
KE7DJD2026-09-04 18:04:3644.31142-115.50981334°37km/h18519m4.3m/s-53.3°C1.6%0hPa0V00:00:0000:00:0000:00:00
KE7DJD2026-09-04 18:04:1644.31001-115.50941333°24km/h18419m6.2m/s-53.2°C1.5%0hPa0V00:00:0000:00:0000:00:00
KE7DJD2026-09-04 18:03:5644.30884-115.50870334°18km/h18323m6.0m/s-53.4°C1.7%0hPa0V00:00:0000:00:0000:00:00
KE7DJD2026-09-04 18:03:3544.30796-115.5087611°9km/h18220m5.2m/s-53.1°C1.6%0hPa0V00:00:0000:00:0000:00:00
KE7DJD2026-09-04 18:02:5444.30592-115.5114957°22km/h18039m4.5m/s-53.5°C1.7%0hPa0V00:00:0000:00:0000:00:00
KE7DJD2026-09-04 18:02:3344.30459-115.5128927°27km/h17941m5.4m/s-53.0°C1.5%0hPa0V00:00:0000:00:0000:00:00
KE7DJD2026-09-04 18:02:1344.30341-115.5145363°37km/h17841m4.6m/s-53.7°C1.8%0hPa0V00:00:0000:00:0000:00:00
KE7DJD2026-09-04 18:01:5244.30210-115.5163051°46km/h17748m5.5m/s-53.7°C2.2%0hPa0V00:00:0000:00:0000:00:00
KE7DJD2026-09-04 18:01:3144.30034-115.5183345°51km/h17642m5.5m/s-53.5°C1.7%0hPa0V00:00:0000:00:0000:00:00
KE7DJD2026-09-04 18:01:1044.29787-115.5207438°68km/h17538m5.3m/s-53.6°C1.7%0hPa0V00:00:0000:00:0000:00:00
KE7DJD2026-09-04 18:00:5144.29478-115.5236532°82km/h17428m4.9m/s-54.3°C1.7%0hPa0V00:00:0000:00:0000:00:00
KE7DJD2026-09-04 18:00:2944.29084-115.5264725°88km/h17323m4.8m/s-55.4°C1.8%0hPa0V00:00:0000:00:0000:00:00
KE7DJD2026-09-04 18:00:0844.28686-115.5289524°75km/h17222m5.6m/s-56.0°C2.1%0hPa0V00:00:0000:00:0000:00:00
KE7DJD2026-09-04 17:59:4844.28369-115.5309418°62km/h17123m4.6m/s-55.6°C2.0%0hPa0V00:00:0000:00:0000:00:00
KE7DJD2026-09-04 17:59:2844.28091-115.5325327°55km/h17026m4.6m/s-54.9°C2.0%0hPa0V00:00:0000:00:0000:00:00
KE7DJD2026-09-04 17:59:0744.27805-115.5343932°58km/h16921m5.2m/s-55.4°C2.3%0hPa0V00:00:0000:00:0000:00:00
KE7DJD2026-09-04 17:58:4644.27545-115.5369631°55km/h16818m5.8m/s-56.0°C2.3%0hPa0V00:00:0000:00:0000:00:00
KE7DJD2026-09-04 17:58:2544.27258-115.5382513°66km/h16707m5.9m/s-56.1°C2.3%0hPa0V00:00:0000:00:0000:00:00
KE7DJD2026-09-04 17:58:0444.26954-115.53840359°71km/h16608m7.0m/s-55.7°C2.4%0hPa0V00:00:0000:00:0000:00:00
KE7DJD2026-09-04 17:57:4344.26677-115.53901358°49km/h16502m3.2m/s-55.8°C2.5%0hPa0V00:00:0000:00:0000:00:00
KE7DJD2026-09-04 17:57:2244.26439-115.5402130°53km/h16401m5.5m/s-54.9°C2.5%0hPa0V00:00:0000:00:0000:00:00
KE7DJD2026-09-04 17:57:0244.26227-115.5415327°57km/h16297m7.9m/s-54.6°C2.4%0hPa0V00:00:0000:00:0000:00:00
KE7DJD2026-09-04 17:56:4144.26014-115.5441543°53km/h16173m5.6m/s-54.2°C2.2%0hPa0V00:00:0000:00:0000:00:00
KE7DJD2026-09-04 17:56:2144.25813-115.5476051°73km/h16077m5.3m/s-55.3°C2.5%0hPa0V00:00:0000:00:0000:00:00
KE7DJD2026-09-04 17:56:0144.25588-115.5521163°77km/h15983m3.2m/s-55.2°C2.4%0hPa0V00:00:0000:00:0000:00:00
KE7DJD2026-09-04 17:55:4044.25303-115.5574455°89km/h15882m6.3m/s-55.2°C2.5%0hPa0V00:00:0000:00:0000:00:00
KE7DJD2026-09-04 17:55:2044.24985-115.5626850°100km/h15789m3.7m/s-55.1°C2.6%0hPa0V00:00:0000:00:0000:00:00
KE7DJD2026-09-04 17:55:0044.24620-115.5674646°106km/h15694m3.1m/s-54.5°C2.7%0hPa0V00:00:0000:00:0000:00:00
KE7DJD2026-09-04 17:54:4044.24224-115.5719835°100km/h15602m5.1m/s-54.8°C2.8%0hPa0V00:00:0000:00:0000:00:00
KE7DJD2026-09-04 17:54:1944.23814-115.5759334°97km/h15506m4.3m/s-55.0°C2.7%0hPa0V00:00:0000:00:0000:00:00
KE7DJD2026-09-04 17:53:5844.23434-115.5792535°86km/h15408m5.7m/s-54.6°C2.9%0hPa0V00:00:0000:00:0000:00:00
KE7DJD2026-09-04 17:53:3744.23097-115.5823442°71km/h15311m3.7m/s-54.2°C2.4%0hPa0V00:00:0000:00:0000:00:00
KE7DJD2026-09-04 17:53:1644.22816-115.5853644°62km/h15218m5.5m/s-54.4°C2.5%0hPa0V00:00:0000:00:0000:00:00
KE7DJD2026-09-04 17:52:5644.22552-115.5885846°75km/h15125m3.9m/s-54.3°C2.6%0hPa0V00:00:0000:00:0000:00:00
KE7DJD2026-09-04 17:52:3644.22258-115.5922146°77km/h15035m5.7m/s-54.3°C2.6%0hPa0V00:00:0000:00:0000:00:00
KE7DJD2026-09-04 17:52:1544.21949-115.5960545°82km/h14938m4.2m/s-54.2°C2.6%0hPa0V00:00:0000:00:0000:00:00
KE7DJD2026-09-04 17:51:5444.21625-115.6005946°99km/h14839m4.7m/s-54.7°C2.9%0hPa0V00:00:0000:00:0000:00:00
KE7DJD2026-09-04 17:51:3444.21260-115.6055443°102km/h14747m3.6m/s-54.5°C3.4%0hPa0V00:00:0000:00:0000:00:00
KE7DJD2026-09-04 17:51:1344.20821-115.6107939°126km/h14647m6.1m/s-54.5°C3.6%0hPa0V00:00:0000:00:0000:00:00
KE7DJD2026-09-04 17:50:5244.20317-115.6154117°117km/h14516m6.5m/s-54.4°C3.1%0hPa0V00:00:0000:00:0000:00:00
KE7DJD2026-09-04 17:50:3244.19771-115.6183722°119km/h14409m6.3m/s-53.6°C3.1%0hPa0V00:00:0000:00:0000:00:00
KE7DJD2026-09-04 17:50:1144.19183-115.6209215°124km/h14312m4.7m/s-53.0°C2.7%0hPa0V00:00:0000:00:0000:00:00
KE7DJD2026-09-04 17:49:5044.18612-115.6232418°108km/h14214m4.1m/s-52.4°C2.7%0hPa0V00:00:0000:00:0000:00:00
KE7DJD2026-09-04 17:49:3044.18111-115.6254917°104km/h14110m4.6m/s-51.6°C2.7%0hPa0V00:00:0000:00:0000:00:00
KE7DJD2026-09-04 17:49:0944.17608-115.6280317°97km/h13996m3.9m/s-51.2°C2.9%0hPa0V00:00:0000:00:0000:00:00
KE7DJD2026-09-04 17:48:4944.17175-115.6306424°88km/h13882m5.9m/s-50.7°C2.9%0hPa0V00:00:0000:00:0000:00:00
KE7DJD2026-09-04 17:48:2844.16773-115.6338638°88km/h13757m6.0m/s-49.9°C2.6%0hPa0V00:00:0000:00:0000:00:00
KE7DJD2026-09-04 17:48:0844.16401-115.6377342°82km/h13650m5.1m/s-49.7°C2.7%0hPa0V00:00:0000:00:0000:00:00
KE7DJD2026-09-04 17:47:4744.16029-115.6432254°108km/h13529m6.4m/s-50.6°C2.5%0hPa0V00:00:0000:00:0000:00:00
KE7DJD2026-09-04 17:47:2644.15659-115.6502156°130km/h13433m4.6m/s-50.6°C2.9%0hPa0V00:00:0000:00:0000:00:00
KE7DJD2026-09-04 17:47:0544.15248-115.6578556°131km/h13337m4.4m/s-49.8°C2.5%0hPa0V00:00:0000:00:0000:00:00
KE7DJD2026-09-04 17:46:4544.14847-115.6652260°130km/h13245m4.3m/s-49.1°C2.9%0hPa0V00:00:0000:00:0000:00:00
KE7DJD2026-09-04 17:46:2544.14399-115.6726250°137km/h13146m5.9m/s-48.5°C2.5%0hPa0V00:00:0000:00:0000:00:00
KE7DJD2026-09-04 17:46:0444.13895-115.6804047°161km/h13047m6.1m/s-48.0°C2.4%0hPa0V00:00:0000:00:0000:00:00
KE7DJD2026-09-04 17:45:4344.13322-115.6879343°153km/h12938m3.9m/s-48.0°C3.0%0hPa0V00:00:0000:00:0000:00:00
KE7DJD2026-09-04 17:45:2344.12730-115.6942439°141km/h12845m4.7m/s-49.1°C3.2%0hPa0V00:00:0000:00:0000:00:00
KE7DJD2026-09-04 17:45:0244.12124-115.7009744°150km/h12753m4.7m/s-48.7°C3.0%0hPa0V00:00:0000:00:0000:00:00
KE7DJD2026-09-04 17:44:4144.11523-115.7079842°146km/h12658m5.7m/s-47.9°C3.3%0hPa0V00:00:0000:00:0000:00:00
KE7DJD2026-09-04 17:44:2044.10916-115.7149839°144km/h12562m3.9m/s-48.0°C3.5%0hPa0V00:00:0000:00:0000:00:00
KE7DJD2026-09-04 17:44:0044.10352-115.7219946°146km/h12470m5.2m/s-48.2°C3.5%0hPa0V00:00:0000:00:0000:00:00
KE7DJD2026-09-04 17:43:3944.09762-115.7293240°142km/h12373m4.5m/s-47.7°C3.5%0hPa0V00:00:0000:00:0000:00:00
KE7DJD2026-09-04 17:43:1944.09182-115.7357539°142km/h12283m5.8m/s-47.5°C3.7%0hPa0V00:00:0000:00:0000:00:00
KE7DJD2026-09-04 17:42:5944.08630-115.7421643°142km/h12195m5.5m/s-47.5°C4.1%0hPa0V00:00:0000:00:0000:00:00
KE7DJD2026-09-04 17:42:3844.08065-115.7485440°144km/h12105m3.3m/s-48.0°C4.8%0hPa0V00:00:0000:00:0000:00:00
KE7DJD2026-09-04 17:42:1844.07493-115.7548341°151km/h12026m2.8m/s-48.3°C5.6%0hPa0V00:00:0000:00:0000:00:00
KE7DJD2026-09-04 17:41:5844.06929-115.7610842°144km/h11945m4.6m/s-48.4°C6.5%0hPa0V00:00:0000:00:0000:00:00
KE7DJD2026-09-04 17:41:3844.06359-115.7676841°144km/h11867m2.9m/s-48.1°C7.1%0hPa0V00:00:0000:00:0000:00:00
KE7DJD2026-09-04 17:41:1744.05751-115.7751142°153km/h11784m3.7m/s-49.9°C12.5%0hPa0V00:00:0000:00:0000:00:00
KE7DJD2026-09-04 17:40:5744.05119-115.7819336°159km/h11704m4.5m/s-51.0°C21.0%0hPa0V00:00:0000:00:0000:00:00
KE7DJD2026-09-04 17:40:3644.04383-115.7881529°151km/h11594m5.7m/s-52.5°C31.9%0hPa0V00:00:0000:00:0000:00:00
KE7DJD2026-09-04 17:40:1544.03679-115.7939334°153km/h11505m5.5m/s-51.7°C30.5%0hPa0V00:00:0000:00:0000:00:00
KE7DJD2026-09-04 17:39:5444.02982-115.7997333°151km/h11410m4.3m/s-50.8°C31.0%0hPa0V00:00:0000:00:0000:00:00
KE7DJD2026-09-04 17:39:3344.02322-115.8056634°159km/h11301m4.1m/s-50.0°C28.5%0hPa0V00:00:0000:00:0000:00:00
KE7DJD2026-09-04 17:39:1244.01673-115.8124339°153km/h11204m4.8m/s-49.7°C28.9%0hPa0V00:00:0000:00:0000:00:00
KE7DJD2026-09-04 17:38:5244.01058-115.8191739°164km/h11108m3.4m/s-48.9°C27.1%0hPa0V00:00:0000:00:0000:00:00
KE7DJD2026-09-04 17:38:3244.00402-115.8254037°148km/h10997m8.0m/s-47.8°C22.9%0hPa0V00:00:0000:00:0000:00:00
KE7DJD2026-09-04 17:38:1243.99743-115.8316334°157km/h10902m3.6m/s-47.1°C21.8%0hPa0V00:00:0000:00:0000:00:00
KE7DJD2026-09-04 17:37:5143.99051-115.8383238°159km/h10805m4.0m/s-46.6°C20.0%0hPa0V00:00:0000:00:0000:00:00
KE7DJD2026-09-04 17:37:3143.98390-115.8449237°166km/h10716m5.3m/s-46.6°C31.6%0hPa0V00:00:0000:00:0000:00:00
KE7DJD2026-09-04 17:37:1043.97659-115.8516034°172km/h10624m3.8m/s-46.2°C41.5%0hPa0V00:00:0000:00:0000:00:00
KE7DJD2026-09-04 17:36:4943.96908-115.8580335°159km/h10535m3.5m/s-45.5°C38.1%0hPa0V00:00:0000:00:0000:00:00
KE7DJD2026-09-04 17:36:2843.96162-115.8645732°164km/h10447m4.5m/s-44.7°C31.8%0hPa0V00:00:0000:00:0000:00:00
KE7DJD2026-09-04 17:36:0843.95421-115.8712133°161km/h10358m3.0m/s-44.1°C36.6%0hPa0V00:00:0000:00:0000:00:00
KE7DJD2026-09-04 17:35:4743.94717-115.8776634°166km/h10275m2.8m/s-43.2°C29.2%0hPa0V00:00:0000:00:0000:00:00
KE7DJD2026-09-04 17:35:2743.94028-115.8842834°162km/h10195m3.7m/s-42.5°C25.3%0hPa0V00:00:0000:00:0000:00:00
KE7DJD2026-09-04 17:35:0743.93332-115.8908934°170km/h10121m4.4m/s-42.0°C20.7%0hPa0V00:00:0000:00:0000:00:00
KE7DJD2026-09-04 17:34:4643.92612-115.8977735°164km/h10038m4.7m/s-41.7°C15.0%0hPa0V00:00:0000:00:0000:00:00
KE7DJD2026-09-04 17:34:2543.91874-115.9045133°168km/h9958m4.1m/s-41.4°C23.9%0hPa0V00:00:0000:00:0000:00:00
KE7DJD2026-09-04 17:34:0443.91126-115.9111031°164km/h9865m4.8m/s-40.5°C21.5%0hPa0V00:00:0000:00:0000:00:00
KE7DJD2026-09-04 17:33:4343.90367-115.9175332°175km/h9781m4.3m/s-40.1°C22.6%0hPa0V00:00:0000:00:0000:00:00
KE7DJD2026-09-04 17:33:2343.89630-115.9236431°168km/h9703m3.5m/s-39.4°C22.3%0hPa0V00:00:0000:00:0000:00:00
KE7DJD2026-09-04 17:33:0243.88854-115.9300433°173km/h9618m3.3m/s-38.6°C20.2%0hPa0V00:00:0000:00:0000:00:00
KE7DJD2026-09-04 17:32:4243.88118-115.9360731°166km/h9536m5.0m/s-37.9°C26.3%0hPa0V00:00:0000:00:0000:00:00
KE7DJD2026-09-04 17:32:2143.87357-115.9423534°166km/h9443m5.0m/s-37.3°C35.4%0hPa0V00:00:0000:00:0000:00:00
KE7DJD2026-09-04 17:32:0143.86656-115.9484535°164km/h9347m2.4m/s-36.4°C38.1%0hPa0V00:00:0000:00:0000:00:00
KE7DJD2026-09-04 17:31:4143.85969-115.9546035°164km/h9265m2.7m/s-35.8°C38.8%0hPa0V00:00:0000:00:0000:00:00
KE7DJD2026-09-04 17:31:2043.85242-115.9608436°162km/h9181m3.0m/s-35.5°C46.0%0hPa0V00:00:0000:00:0000:00:00
KE7DJD2026-09-04 17:30:5943.84495-115.9668633°162km/h9100m4.7m/s-35.2°C32.3%0hPa0V00:00:0000:00:0000:00:00
KE7DJD2026-09-04 17:30:3943.83777-115.9724927°161km/h9018m3.9m/s-34.5°C19.1%0hPa0V00:00:0000:00:0000:00:00
KE7DJD2026-09-04 17:30:1843.83018-115.9782631°159km/h8931m5.0m/s-34.0°C15.0%0hPa0V00:00:0000:00:0000:00:00
KE7DJD2026-09-04 17:29:5743.82276-115.9843132°162km/h8839m5.0m/s-33.3°C17.7%0hPa0V00:00:0000:00:0000:00:00
KE7DJD2026-09-04 17:29:3743.81573-115.9902533°170km/h8753m3.0m/s-32.5°C17.9%0hPa0V00:00:0000:00:0000:00:00
KE7DJD2026-09-04 17:29:1743.80869-115.9961531°166km/h8666m5.1m/s-31.7°C14.2%0hPa0V00:00:0000:00:0000:00:00
KE7DJD2026-09-04 17:28:5643.80123-116.0024033°166km/h8574m5.6m/s-31.3°C11.8%0hPa0V00:00:0000:00:0000:00:00
KE7DJD2026-09-04 17:28:3543.79385-116.0089433°168km/h8477m3.9m/s-30.4°C12.3%0hPa0V00:00:0000:00:0000:00:00
KE7DJD2026-09-04 17:28:1543.78690-116.0153636°170km/h8387m4.8m/s-29.8°C13.3%0hPa0V00:00:0000:00:0000:00:00
KE7DJD2026-09-04 17:27:5443.77961-116.0222137°157km/h8287m4.5m/s-28.9°C12.5%0hPa0V00:00:0000:00:0000:00:00
KE7DJD2026-09-04 17:27:3343.77262-116.0290534°157km/h8187m4.4m/s-28.4°C10.9%0hPa0V00:00:0000:00:0000:00:00
KE7DJD2026-09-04 17:27:1243.76576-116.0361131°161km/h8085m4.4m/s-27.6°C11.6%0hPa0V00:00:0000:00:0000:00:00
KE7DJD2026-09-04 17:26:5243.75947-116.0433541°157km/h7983m3.0m/s-27.3°C9.9%0hPa0V00:00:0000:00:0000:00:00
KE7DJD2026-09-04 17:26:3243.75322-116.0499839°153km/h7902m3.7m/s-26.8°C10.6%0hPa0V00:00:0000:00:0000:00:00
KE7DJD2026-09-04 17:26:1143.74669-116.0569240°155km/h7818m4.6m/s-26.7°C10.8%0hPa0V00:00:0000:00:0000:00:00
KE7DJD2026-09-04 17:25:5143.74078-116.0632441°146km/h7739m5.6m/s-26.2°C11.5%0hPa0V00:00:0000:00:0000:00:00
KE7DJD2026-09-04 17:25:3143.73503-116.0696234°135km/h7652m7.3m/s-26.0°C11.5%0hPa0V00:00:0000:00:0000:00:00
KE7DJD2026-09-04 17:25:1143.72893-116.0752932°141km/h7544m5.0m/s-25.2°C10.6%0hPa0V00:00:0000:00:0000:00:00
KE7DJD2026-09-04 17:24:5043.72222-116.0811230°151km/h7435m4.1m/s-24.6°C10.0%0hPa0V00:00:0000:00:0000:00:00
KE7DJD2026-09-04 17:24:2943.71553-116.0866233°148km/h7349m4.0m/s-24.6°C15.7%0hPa0V00:00:0000:00:0000:00:00
KE7DJD2026-09-04 17:24:0843.70879-116.0920033°142km/h7259m5.3m/s-24.6°C18.8%0hPa0V00:00:0000:00:0000:00:00
KE7DJD2026-09-04 17:23:4743.70223-116.0973930°142km/h7177m4.3m/s-24.0°C19.8%0hPa0V00:00:0000:00:0000:00:00
KE7DJD2026-09-04 17:23:2643.69570-116.1028034°146km/h7074m3.3m/s-23.6°C20.9%0hPa0V00:00:0000:00:0000:00:00
KE7DJD2026-09-04 17:23:0643.68975-116.1082137°139km/h6992m4.2m/s-23.0°C21.3%0hPa0V00:00:0000:00:0000:00:00
KE7DJD2026-09-04 17:22:4643.68395-116.1139338°137km/h6900m4.1m/s-22.8°C21.6%0hPa0V00:00:0000:00:0000:00:00
KE7DJD2026-09-04 17:22:2643.67840-116.1194842°120km/h6806m4.0m/s-22.8°C25.2%0hPa0V00:00:0000:00:0000:00:00
KE7DJD2026-09-04 17:22:0543.67317-116.1251337°111km/h6707m5.0m/s-22.6°C31.9%0hPa0V00:00:0000:00:0000:00:00
KE7DJD2026-09-04 17:21:4543.66865-116.1300339°104km/h6622m4.7m/s-22.3°C27.5%0hPa0V00:00:0000:00:0000:00:00
KE7DJD2026-09-04 17:21:2543.66406-116.1348038°104km/h6535m5.8m/s-22.1°C26.7%0hPa0V00:00:0000:00:0000:00:00
KE7DJD2026-09-04 17:21:0443.65970-116.1391837°117km/h6432m5.9m/s-21.3°C30.5%0hPa0V00:00:0000:00:0000:00:00
KE7DJD2026-09-04 17:20:4443.65560-116.1431937°113km/h6316m4.5m/s-20.4°C31.3%0hPa0V00:00:0000:00:0000:00:00
KE7DJD2026-09-04 17:20:2343.65129-116.1468533°99km/h6204m7.5m/s-19.4°C65.2%0hPa0V00:00:0000:00:0000:00:00
KE7DJD2026-09-04 17:20:0243.64719-116.1501030°99km/h6092m4.3m/s-19.1°C66.4%0hPa0V00:00:0000:00:0000:00:00
KE7DJD2026-09-04 17:19:4243.64360-116.1531037°75km/h5975m8.4m/s-16.9°C90.5%0hPa0V00:00:0000:00:0000:00:00
KE7DJD2026-09-04 17:19:2243.64062-116.1551018°57km/h5840m6.2m/s-16.2°C92.6%0hPa0V00:00:0000:00:0000:00:00
KE7DJD2026-09-04 17:19:0143.63740-116.1571736°75km/h5717m7.2m/s-15.5°C93.1%0hPa0V00:00:0000:00:0000:00:00
KE7DJD2026-09-04 17:18:4043.63413-116.1584116°77km/h5574m8.0m/s-14.5°C94.1%0hPa0V00:00:0000:00:0000:00:00
KE7DJD2026-09-04 17:18:2043.63124-116.1599733°47km/h5456m5.3m/s-13.9°C94.2%0hPa0V00:00:0000:00:0000:00:00
KE7DJD2026-09-04 17:18:0043.62822-116.1619824°53km/h5331m5.9m/s-13.0°C94.0%0hPa0V00:00:0000:00:0000:00:00
KE7DJD2026-09-04 17:17:3943.62488-116.1636111°73km/h5221m5.2m/s-12.1°C94.6%0hPa0V00:00:0000:00:0000:00:00
KE7DJD2026-09-04 17:17:1843.62183-116.1645625°66km/h5088m8.3m/s-11.4°C95.0%0hPa0V00:00:0000:00:0000:00:00
KE7DJD2026-09-04 17:16:5743.61852-116.1659125°55km/h4956m6.0m/s-10.5°C95.8%0hPa0V00:00:0000:00:0000:00:00
KE7DJD2026-09-04 17:16:3643.61549-116.1665322°55km/h4807m7.7m/s-10.0°C97.6%0hPa0V00:00:0000:00:0000:00:00
KE7DJD2026-09-04 17:16:1643.61230-116.1674928°66km/h4691m5.5m/s-9.3°C97.6%0hPa0V00:00:0000:00:0000:00:00
KE7DJD2026-09-04 17:15:5643.60941-116.1686426°44km/h4576m4.9m/s-8.7°C97.8%0hPa0V00:00:0000:00:0000:00:00
KE7DJD2026-09-04 17:15:3543.60634-116.1706835°49km/h4468m4.5m/s-7.9°C95.3%0hPa0V00:00:0000:00:0000:00:00
KE7DJD2026-09-04 17:15:1543.60359-116.1721516°60km/h4374m5.5m/s-7.0°C90.8%0hPa0V00:00:0000:00:0000:00:00
KE7DJD2026-09-04 17:14:5443.60134-116.1744056°57km/h4270m3.6m/s-7.1°C92.8%0hPa0V00:00:0000:00:0000:00:00
KE7DJD2026-09-04 17:14:3443.59908-116.1773845°71km/h4179m5.0m/s-6.6°C94.9%0hPa0V00:00:0000:00:0000:00:00
KE7DJD2026-09-04 17:14:1343.59670-116.1800839°64km/h4072m5.2m/s-5.9°C93.8%0hPa0V00:00:0000:00:0000:00:00
KE7DJD2026-09-04 17:13:5343.59437-116.1830339°62km/h3970m4.1m/s-5.2°C93.7%0hPa0V00:00:0000:00:0000:00:00
KE7DJD2026-09-04 17:13:3143.59231-116.1862067°62km/h3868m7.0m/s-4.9°C90.8%0hPa0V00:00:0000:00:0000:00:00
KE7DJD2026-09-04 17:13:1043.59040-116.1897869°47km/h3778m3.8m/s-4.9°C84.5%0hPa0V00:00:0000:00:0000:00:00
KE7DJD2026-09-04 17:12:5043.58940-116.1938679°62km/h3684m6.4m/s-4.7°C90.5%0hPa0V00:00:0000:00:0000:00:00
KE7DJD2026-09-04 17:12:2943.58848-116.1965343°44km/h3577m5.8m/s-4.2°C94.4%0hPa0V00:00:0000:00:0000:00:00
KE7DJD2026-09-04 17:12:0843.58734-116.1987764°24km/h3474m5.4m/s-3.2°C90.6%0hPa0V00:00:0000:00:0000:00:00
KE7DJD2026-09-04 17:11:4743.58645-116.2006837°26km/h3355m5.0m/s-2.1°C84.7%0hPa0V00:00:0000:00:0000:00:00
KE7DJD2026-09-04 17:11:2743.58532-116.2022651°26km/h3252m5.6m/s-1.1°C80.4%0hPa0V00:00:0000:00:0000:00:00
KE7DJD2026-09-04 17:11:0643.58401-116.2041130°44km/h3149m4.3m/s-0.2°C77.0%0hPa0V00:00:0000:00:0000:00:00
KE7DJD2026-09-04 17:10:4543.58252-116.2056545°38km/h3037m4.0m/s0.4°C79.0%0hPa0V00:00:0000:00:0000:00:00
KE7DJD2026-09-04 17:10:2543.58152-116.2063934°24km/h2941m5.8m/s1.0°C79.8%0hPa0V00:00:0000:00:0000:00:00
KE7DJD2026-09-04 17:10:0443.58012-116.2074046°29km/h2837m4.9m/s1.6°C83.4%0hPa0V00:00:0000:00:0000:00:00
KE7DJD2026-09-04 17:09:4443.57882-116.2082135°27km/h2733m5.9m/s2.2°C85.3%0hPa0V00:00:0000:00:0000:00:00
KE7DJD2026-09-04 17:09:2343.57718-116.2088325°16km/h2619m4.4m/s2.7°C85.7%0hPa0V00:00:0000:00:0000:00:00
KE7DJD2026-09-04 17:09:0343.57559-116.20948358°38km/h2519m4.6m/s3.5°C83.1%0hPa0V00:00:0000:00:0000:00:00
KE7DJD2026-09-04 17:08:4343.57417-116.2096938km/h2408m7.4m/s4.4°C79.1%0hPa0V00:00:0000:00:0000:00:00
KE7DJD2026-09-04 17:08:2143.57269-116.2098325°35km/h2291m5.5m/s4.9°C75.6%0hPa0V00:00:0000:00:0000:00:00
KE7DJD2026-09-04 17:08:0143.57174-116.2099827km/h2194m5.9m/s5.0°C69.5%0hPa0V00:00:0000:00:0000:00:00
KE7DJD2026-09-04 17:07:4143.57094-116.2097419°20km/h2085m5.2m/s5.4°C67.2%0hPa0V00:00:0000:00:0000:00:00
KE7DJD2026-09-04 17:07:2043.56980-116.20943344°27km/h1957m5.8m/s5.7°C72.5%0hPa0V00:00:0000:00:0000:00:00
KE7DJD2026-09-04 17:07:0143.56877-116.20885302°20km/h1851m6.2m/s6.0°C73.8%0hPa0V00:00:0000:00:0000:00:00
KE7DJD2026-09-04 17:06:3943.56778-116.2085319°9km/h1740m4.2m/s6.6°C72.7%0hPa0V00:00:0000:00:0000:00:00
KE7DJD2026-09-04 17:06:1943.56686-116.2081814°24km/h1641m5.1m/s6.9°C62.5%0hPa0V00:00:0000:00:0000:00:00
KE7DJD2026-09-04 17:05:5843.56623-116.2085617°20km/h1542m4.7m/s6.1°C71.3%0hPa0V00:00:0000:00:0000:00:00
KE7DJD2026-09-04 17:05:3843.56624-116.20877120°15km/h1444m5.1m/s0°C0%0hPa0V00:00:0000:00:0000:00:00
KE7DJD2026-09-04 17:05:1843.56618-116.20890108°20km/h1337m5.0m/s0°C0%0hPa0V00:00:0000:00:0000:00:00
KE7DJD2026-09-04 17:04:5743.56654-116.20923124°22km/h1222m5.3m/s0°C0%0hPa0V00:00:0000:00:0000:00:00


GPX KML Map

© wettersonde.net (DO2JMG) - 2026  -  -